createdAt,value
2023-04-23T00:01:28.900Z,15.20
2023-04-23T00:04:00.330Z,15.43
2023-04-23T00:06:29.134Z,15.54
2023-04-23T00:09:00.384Z,15.38
2023-04-23T00:11:28.156Z,15.34
2023-04-23T00:13:55.488Z,15.28
2023-04-23T00:16:22.967Z,15.03
2023-04-23T00:18:50.823Z,15.12
2023-04-23T00:21:18.428Z,14.65
2023-04-23T00:23:45.696Z,14.23
2023-04-23T00:26:13.631Z,14.60
2023-04-23T00:28:40.814Z,13.48
2023-04-23T00:31:08.559Z,13.98
2023-04-23T00:33:37.372Z,13.41
2023-04-23T00:36:05.029Z,13.89
2023-04-23T00:38:32.129Z,14.36
2023-04-23T00:41:00.409Z,14.38
2023-04-23T00:43:27.588Z,14.57
2023-04-23T00:45:55.950Z,14.58
2023-04-23T00:48:23.209Z,14.39
2023-04-23T00:50:58.755Z,14.46
2023-04-23T00:53:27.316Z,14.08
2023-04-23T00:55:55.026Z,14.28
2023-04-23T00:58:23.206Z,14.38
2023-04-23T01:00:52.837Z,14.44
2023-04-23T01:03:22.218Z,14.52
2023-04-23T01:05:50.407Z,14.44
2023-04-23T01:08:23.193Z,14.57
2023-04-23T01:10:51.380Z,14.37
2023-04-23T01:13:18.490Z,14.18
2023-04-23T01:15:46.090Z,14.10
2023-04-23T01:18:13.550Z,13.97
2023-04-23T01:20:41.029Z,13.74
2023-04-23T01:23:09.125Z,13.60
2023-04-23T01:25:37.003Z,13.80
2023-04-23T01:28:06.884Z,13.18
2023-04-23T01:30:35.141Z,13.57
2023-04-23T01:33:04.905Z,13.76
2023-04-23T01:35:32.925Z,13.85
2023-04-23T01:38:03.547Z,13.89
2023-04-23T01:40:31.324Z,13.99
2023-04-23T01:42:58.788Z,13.84
2023-04-23T01:45:26.898Z,13.96
2023-04-23T01:47:54.306Z,14.02
2023-04-23T01:50:24.723Z,13.98
2023-04-23T01:52:52.893Z,13.17
2023-04-23T01:55:21.600Z,13.36
2023-04-23T01:57:49.868Z,13.50
2023-04-23T02:00:17.532Z,13.68
2023-04-23T02:02:46.126Z,13.78
2023-04-23T02:05:18.998Z,13.73
2023-04-23T02:07:48.896Z,13.79
2023-04-23T02:10:16.324Z,13.84
2023-04-23T02:12:45.255Z,13.91
2023-04-23T02:15:13.958Z,13.83
2023-04-23T02:17:42.062Z,13.59
2023-04-23T02:20:11.065Z,13.24
2023-04-23T02:22:40.940Z,13.21
2023-04-23T02:25:08.605Z,13.05
2023-04-23T02:27:36.292Z,12.81
2023-04-23T02:30:04.019Z,13.21
2023-04-23T02:32:31.522Z,13.22
2023-04-23T02:34:59.897Z,13.19
2023-04-23T02:37:27.740Z,12.92
2023-04-23T02:39:55.121Z,13.16
2023-04-23T02:42:22.461Z,13.26
2023-04-23T02:44:50.320Z,13.28
2023-04-23T02:47:17.722Z,13.13
2023-04-23T02:49:44.801Z,12.83
2023-04-23T02:52:13.280Z,12.79
2023-04-23T02:54:40.538Z,12.82
2023-04-23T02:57:08.363Z,12.98
2023-04-23T02:59:36.607Z,13.03
2023-04-23T03:02:04.400Z,13.04
2023-04-23T03:04:31.900Z,13.01
2023-04-23T03:06:59.959Z,12.72
2023-04-23T03:09:27.085Z,12.27
2023-04-23T03:11:54.936Z,12.17
2023-04-23T03:14:22.227Z,12.07
2023-04-23T03:16:49.927Z,12.33
2023-04-23T03:19:17.960Z,12.53
2023-04-23T03:21:45.348Z,12.66
2023-04-23T03:24:15.400Z,12.70
2023-04-23T03:26:43.504Z,12.69
2023-04-23T03:29:11.063Z,12.73
2023-04-23T03:31:38.571Z,12.60
2023-04-23T03:34:07.884Z,12.45
2023-04-23T03:36:36.380Z,12.35
2023-04-23T03:39:04.023Z,12.51
2023-04-23T03:41:45.080Z,12.07
2023-04-23T03:44:14.631Z,12.02
2023-04-23T03:46:45.023Z,12.29
2023-04-23T03:49:15.295Z,11.77
2023-04-23T03:51:42.394Z,11.46
2023-04-23T03:54:09.908Z,11.41
2023-04-23T03:56:41.594Z,11.35
2023-04-23T03:59:24.318Z,11.17
2023-04-23T04:01:54.848Z,11.48
2023-04-23T04:04:22.543Z,11.53
2023-04-23T04:06:50.835Z,11.52
2023-04-23T04:09:18.408Z,11.53
2023-04-23T04:11:45.510Z,11.61
2023-04-23T04:14:13.057Z,11.46
2023-04-23T04:16:42.048Z,11.35
2023-04-23T04:19:09.694Z,11.30
2023-04-23T04:21:37.200Z,11.84
2023-04-23T04:24:05.776Z,12.04
2023-04-23T04:26:33.161Z,12.32
2023-04-23T04:29:04.923Z,12.19
2023-04-23T04:31:33.752Z,12.34
2023-04-23T04:34:01.122Z,12.67
2023-04-23T04:36:29.047Z,12.84
2023-04-23T04:38:59.135Z,12.86
2023-04-23T04:41:28.048Z,12.89
2023-04-23T04:43:55.327Z,12.49
2023-04-23T04:46:24.122Z,12.67
2023-04-23T04:48:51.184Z,12.67
2023-04-23T04:51:18.955Z,12.94
2023-04-23T04:53:46.594Z,13.31
2023-04-23T04:56:13.902Z,13.55
2023-04-23T04:58:40.954Z,13.65
2023-04-23T05:01:08.728Z,13.84
2023-04-23T05:03:37.462Z,13.93
2023-04-23T05:06:05.481Z,14.15
2023-04-23T05:08:32.788Z,14.43
2023-04-23T05:11:01.983Z,14.59
2023-04-23T05:13:29.033Z,14.76
2023-04-23T05:15:56.592Z,14.83
2023-04-23T05:18:23.720Z,14.66
2023-04-23T05:20:51.467Z,14.83
2023-04-23T05:23:19.460Z,14.98
2023-04-23T05:25:46.886Z,15.23
2023-04-23T05:28:14.127Z,15.32
2023-04-23T05:30:42.221Z,15.49
2023-04-23T05:33:09.373Z,15.63
2023-04-23T05:35:37.346Z,15.85
2023-04-23T05:38:05.554Z,16.02
2023-04-23T05:40:33.404Z,15.77
2023-04-23T05:43:00.845Z,16.08
2023-04-23T05:45:29.761Z,16.20
2023-04-23T05:47:56.889Z,16.34
2023-04-23T05:50:24.473Z,16.37
2023-04-23T05:52:51.686Z,16.26
2023-04-23T05:55:20.797Z,16.18
2023-04-23T05:57:48.058Z,16.19
2023-04-23T06:00:16.440Z,16.39
2023-04-23T06:02:43.719Z,16.60
2023-04-23T06:05:11.714Z,16.56
2023-04-23T06:07:39.972Z,16.72
2023-04-23T06:10:08.019Z,16.53
2023-04-23T06:12:39.371Z,16.74
2023-04-23T06:15:09.109Z,16.75
2023-04-23T06:17:36.871Z,16.75
2023-04-23T06:20:05.462Z,16.92
2023-04-23T06:22:33.351Z,16.99
2023-04-23T06:25:00.786Z,16.62
2023-04-23T06:27:27.892Z,16.62
2023-04-23T06:30:00.323Z,16.98
2023-04-23T06:32:28.019Z,16.55
2023-04-23T06:35:01.418Z,17.08
2023-04-23T06:37:32.102Z,16.99
2023-04-23T06:40:00.226Z,17.38
2023-04-23T06:42:27.966Z,17.59
2023-04-23T06:45:17.474Z,17.74
2023-04-23T06:47:45.320Z,17.79
2023-04-23T06:50:12.437Z,18.05
2023-04-23T06:52:40.251Z,17.91
2023-04-23T06:55:08.576Z,17.83
2023-04-23T06:57:36.415Z,17.75
2023-04-23T07:00:03.956Z,17.94
2023-04-23T07:02:37.175Z,17.79
2023-04-23T07:05:04.988Z,18.13
2023-04-23T07:07:33.036Z,17.85
2023-04-23T07:10:00.267Z,18.22
2023-04-23T07:12:27.596Z,18.46
2023-04-23T07:14:55.407Z,18.92
2023-04-23T07:17:22.758Z,18.68
2023-04-23T07:19:50.413Z,18.80
2023-04-23T07:22:17.744Z,18.98
2023-04-23T07:24:45.069Z,18.99
2023-04-23T07:27:12.336Z,19.26
2023-04-23T07:29:39.808Z,19.55
2023-04-23T07:32:07.178Z,19.30
2023-04-23T07:34:37.983Z,19.23
2023-04-23T07:37:06.109Z,19.44
2023-04-23T07:39:34.032Z,19.43
2023-04-23T07:42:02.427Z,19.38
2023-04-23T07:44:29.514Z,19.58
2023-04-23T07:46:56.686Z,19.76
2023-04-23T07:49:23.927Z,20.09
2023-04-23T07:51:51.060Z,20.19
2023-04-23T07:54:18.237Z,20.08
2023-04-23T07:56:45.382Z,20.44
2023-04-23T07:59:12.483Z,20.23
2023-04-23T08:01:39.761Z,20.02
2023-04-23T08:04:07.243Z,20.12
2023-04-23T08:06:35.905Z,20.39
2023-04-23T08:09:06.776Z,20.56
2023-04-23T08:11:34.288Z,20.57
2023-04-23T08:14:02.012Z,20.97
2023-04-23T08:16:30.927Z,20.43
2023-04-23T08:19:05.545Z,20.80
2023-04-23T08:21:34.865Z,21.17
2023-04-23T08:24:03.380Z,20.46
2023-04-23T08:26:31.303Z,20.65
2023-04-23T08:29:00.968Z,20.61
2023-04-23T08:31:28.286Z,21.02
2023-04-23T08:33:56.418Z,21.31
2023-04-23T08:36:23.959Z,21.24
2023-04-23T08:38:51.085Z,21.98
2023-04-23T08:41:23.178Z,22.01
2023-04-23T08:44:20.507Z,22.01
2023-04-23T08:46:49.343Z,22.13
2023-04-23T08:49:18.266Z,22.00
2023-04-23T08:51:50.651Z,22.35
2023-04-23T08:54:28.461Z,22.40
2023-04-23T08:56:59.944Z,22.62
2023-04-23T08:59:30.716Z,22.80
2023-04-23T09:02:01.601Z,23.00
2023-04-23T09:04:29.287Z,22.91
2023-04-23T09:06:56.773Z,22.44
2023-04-23T09:09:24.786Z,22.79
2023-04-23T09:11:54.666Z,23.12
2023-04-23T09:14:25.862Z,23.17
2023-04-23T09:16:54.270Z,23.04
2023-04-23T09:19:21.536Z,23.17
2023-04-23T09:21:48.662Z,23.56
2023-04-23T09:24:16.656Z,23.30
2023-04-23T09:26:48.684Z,23.23
2023-04-23T09:29:24.199Z,23.35
2023-04-23T09:31:55.750Z,23.18
2023-04-23T09:34:24.866Z,23.50
2023-04-23T09:36:53.454Z,23.38
2023-04-23T09:39:23.326Z,23.99
2023-04-23T09:41:54.375Z,24.00
2023-04-23T09:44:26.834Z,24.02
2023-04-23T09:46:54.078Z,23.91
2023-04-23T09:49:21.459Z,24.05
2023-04-23T09:51:49.934Z,24.20
2023-04-23T09:54:25.304Z,24.13
2023-04-23T09:56:57.294Z,24.09
2023-04-23T09:59:46.171Z,24.11
2023-04-23T10:02:15.998Z,24.07
2023-04-23T10:04:43.528Z,24.08
2023-04-23T10:09:44.543Z,23.69
2023-04-23T10:14:43.412Z,24.60
2023-04-23T10:17:11.056Z,24.46
2023-04-23T10:19:41.669Z,24.88
2023-04-23T10:22:19.630Z,24.62
2023-04-23T10:24:52.458Z,24.45
2023-04-23T10:29:53.886Z,25.19
2023-04-23T10:32:22.146Z,25.00
2023-04-23T10:34:51.072Z,24.75
2023-04-23T10:37:21.630Z,25.11
2023-04-23T10:39:53.973Z,25.41
2023-04-23T10:42:22.179Z,25.38
2023-04-23T10:47:20.951Z,26.41
2023-04-23T10:49:49.136Z,26.18
2023-04-23T10:52:21.686Z,26.60
2023-04-23T10:54:58.487Z,26.91
2023-04-23T10:57:25.697Z,27.36
2023-04-23T10:59:56.448Z,27.35
2023-04-23T11:02:25.098Z,27.47
2023-04-23T11:05:01.756Z,27.22
2023-04-23T11:07:33.474Z,27.26
2023-04-23T11:10:12.326Z,27.57
2023-04-23T11:12:40.247Z,28.16
2023-04-23T11:15:15.336Z,28.15
2023-04-23T11:17:45.157Z,28.14
2023-04-23T11:20:22.538Z,28.54
2023-04-23T11:22:53.530Z,28.53
2023-04-23T11:25:23.726Z,28.66
2023-04-23T11:27:53.184Z,29.11
2023-04-23T11:30:28.829Z,28.72
2023-04-23T11:33:00.555Z,29.20
2023-04-23T11:35:29.995Z,29.39
2023-04-23T11:37:57.455Z,29.93
2023-04-23T11:40:26.072Z,30.19
2023-04-23T11:42:58.087Z,30.17
2023-04-23T11:45:29.972Z,30.92
2023-04-23T11:48:01.254Z,31.37
2023-04-23T11:50:31.252Z,31.14
2023-04-23T11:52:59.083Z,31.09
2023-04-23T11:55:26.804Z,30.93
2023-04-23T11:57:53.861Z,31.00
2023-04-23T12:00:24.579Z,29.91
2023-04-23T12:03:03.138Z,29.66
2023-04-23T12:05:51.802Z,29.16
2023-04-23T12:08:20.505Z,29.10
2023-04-23T12:10:55.006Z,30.50
2023-04-23T12:13:30.968Z,30.74
2023-04-23T12:16:04.439Z,30.90
2023-04-23T12:18:42.492Z,30.96
2023-04-23T12:21:15.518Z,31.68
2023-04-23T12:23:45.493Z,31.77
2023-04-23T12:26:15.585Z,31.21
2023-04-23T12:28:53.850Z,30.72
2023-04-23T12:31:29.378Z,30.48
2023-04-23T12:34:03.193Z,29.64
2023-04-23T12:36:31.858Z,29.49
2023-04-23T12:39:25.595Z,29.45
2023-04-23T12:41:55.391Z,29.71
2023-04-23T12:44:22.894Z,29.59
2023-04-23T12:46:58.295Z,30.58
2023-04-23T12:49:27.487Z,31.60
2023-04-23T12:52:01.657Z,32.26
2023-04-23T12:54:31.755Z,32.77
2023-04-23T12:57:05.146Z,33.22
2023-04-23T12:59:33.185Z,33.83
2023-04-23T13:02:03.003Z,34.53
2023-04-23T13:04:33.508Z,35.07
2023-04-23T13:07:01.118Z,35.15
2023-04-23T13:09:29.932Z,34.29
2023-04-23T13:11:57.251Z,34.65
2023-04-23T13:14:24.942Z,34.99
2023-04-23T13:16:52.985Z,35.02
2023-04-23T13:19:20.410Z,35.22
2023-04-23T13:21:48.338Z,35.87
2023-04-23T13:24:15.836Z,36.18
2023-04-23T13:26:43.069Z,37.06
2023-04-23T13:29:12.996Z,37.34
2023-04-23T13:31:40.194Z,37.05
2023-04-23T13:34:07.920Z,35.49
2023-04-23T13:36:35.608Z,34.65
2023-04-23T13:39:03.733Z,35.18
2023-04-23T13:41:30.885Z,35.53
2023-04-23T13:43:59.118Z,34.97
2023-04-23T13:46:27.654Z,35.76
2023-04-23T13:48:55.472Z,34.53
2023-04-23T13:51:34.739Z,33.73
2023-04-23T13:54:04.713Z,34.86
2023-04-23T13:56:32.246Z,33.89
2023-04-23T13:59:18.339Z,34.11
2023-04-23T14:01:50.449Z,34.45
2023-04-23T14:04:19.102Z,34.31
2023-04-23T14:06:46.411Z,35.21
2023-04-23T14:09:14.455Z,35.59
2023-04-23T14:11:41.827Z,36.32
2023-04-23T14:14:10.775Z,36.03
2023-04-23T14:16:37.855Z,35.98
2023-04-23T14:19:06.496Z,36.43
2023-04-23T14:21:36.952Z,36.15
2023-04-23T14:24:24.961Z,35.24
2023-04-23T14:26:53.345Z,34.91
2023-04-23T14:29:41.442Z,35.26
2023-04-23T14:32:09.691Z,36.39
2023-04-23T14:34:36.882Z,36.45
2023-04-23T14:37:04.749Z,36.07
2023-04-23T14:39:32.062Z,36.68
2023-04-23T14:41:59.567Z,35.94
2023-04-23T14:44:27.330Z,36.51
2023-04-23T14:46:56.047Z,37.11
2023-04-23T14:49:24.265Z,37.18
2023-04-23T14:51:58.413Z,37.90
2023-04-23T14:54:25.958Z,37.83
2023-04-23T14:56:53.066Z,37.72
2023-04-23T14:59:22.198Z,37.23
2023-04-23T15:01:49.520Z,36.31
2023-04-23T15:04:17.065Z,35.40
2023-04-23T15:06:44.649Z,34.77
2023-04-23T15:09:12.298Z,33.65
2023-04-23T15:11:42.028Z,34.49
2023-04-23T15:14:22.132Z,34.06
2023-04-23T15:16:50.179Z,34.26
2023-04-23T15:19:19.186Z,34.71
2023-04-23T15:21:48.279Z,34.82
2023-04-23T15:24:16.465Z,35.70
2023-04-23T15:26:46.239Z,35.54
2023-04-23T15:29:14.043Z,36.16
2023-04-23T15:31:42.482Z,36.20
2023-04-23T15:34:10.080Z,35.92
2023-04-23T15:36:38.175Z,36.53
2023-04-23T15:39:06.720Z,36.40
2023-04-23T15:41:40.306Z,36.74
2023-04-23T15:44:12.434Z,36.49
2023-04-23T15:46:40.898Z,37.45
2023-04-23T15:49:08.257Z,37.66
2023-04-23T15:51:36.716Z,36.93
2023-04-23T15:54:06.365Z,37.32
2023-04-23T15:56:34.331Z,36.88
2023-04-23T15:59:01.446Z,35.78
2023-04-23T16:01:28.863Z,35.86
2023-04-23T16:04:08.780Z,36.38
2023-04-23T16:06:37.278Z,36.62
2023-04-23T16:09:07.499Z,37.06
2023-04-23T16:11:36.326Z,37.57
2023-04-23T16:14:04.913Z,37.47
2023-04-23T16:16:32.363Z,35.55
2023-04-23T16:19:00.013Z,34.03
2023-04-23T16:21:28.371Z,33.28
2023-04-23T16:23:55.596Z,31.99
2023-04-23T16:26:22.919Z,30.93
2023-04-23T16:28:52.260Z,30.88
2023-04-23T16:31:32.821Z,30.74
2023-04-23T16:34:00.164Z,30.41
2023-04-23T16:36:27.352Z,28.65
2023-04-23T16:38:54.462Z,28.15
2023-04-23T16:41:22.609Z,28.27
2023-04-23T16:43:49.810Z,28.07
2023-04-23T16:46:17.316Z,27.76
2023-04-23T16:48:46.831Z,27.72
2023-04-23T16:51:14.478Z,27.35
2023-04-23T16:53:44.065Z,27.24
2023-04-23T16:56:11.863Z,27.79
2023-04-23T16:58:39.180Z,28.24
2023-04-23T17:01:06.542Z,28.50
2023-04-23T17:03:34.328Z,28.28
2023-04-23T17:06:18.593Z,27.87
2023-04-23T17:08:46.914Z,27.53
2023-04-23T17:11:14.051Z,27.08
2023-04-23T17:13:43.846Z,26.81
2023-04-23T17:16:11.649Z,26.30
2023-04-23T17:18:39.283Z,26.02
2023-04-23T17:21:06.593Z,25.62
2023-04-23T17:23:34.448Z,25.42
2023-04-23T17:26:01.792Z,25.18
2023-04-23T17:28:29.562Z,24.95
2023-04-23T17:30:56.809Z,24.67
2023-04-23T17:33:25.287Z,24.48
2023-04-23T17:35:53.673Z,24.31
2023-04-23T17:38:21.352Z,24.14
2023-04-23T17:40:49.799Z,24.05
2023-04-23T17:43:17.933Z,23.84
2023-04-23T17:45:45.965Z,23.75
2023-04-23T17:48:13.539Z,23.55
2023-04-23T17:50:44.714Z,23.44
2023-04-23T17:53:12.116Z,23.36
2023-04-23T17:55:39.265Z,23.27
2023-04-23T17:58:06.933Z,23.10
2023-04-23T18:00:39.065Z,22.97
2023-04-23T18:03:07.578Z,22.94
2023-04-23T18:05:35.173Z,22.85
2023-04-23T18:08:02.845Z,22.72
2023-04-23T18:10:30.193Z,22.56
2023-04-23T18:12:57.713Z,22.46
2023-04-23T18:15:25.953Z,22.40
2023-04-23T18:17:55.953Z,22.30
2023-04-23T18:20:25.001Z,22.36
2023-04-23T18:22:56.356Z,22.20
2023-04-23T18:25:25.645Z,22.20
2023-04-23T18:27:52.921Z,22.06
2023-04-23T18:30:23.685Z,21.87
2023-04-23T18:33:01.128Z,21.74
2023-04-23T18:35:28.781Z,21.61
2023-04-23T18:38:04.861Z,21.61
2023-04-23T18:40:32.552Z,21.51
2023-04-23T18:42:59.622Z,21.30
2023-04-23T18:45:27.253Z,21.37
2023-04-23T18:48:03.366Z,21.26
2023-04-23T18:50:35.683Z,21.15
2023-04-23T18:53:06.926Z,21.19
2023-04-23T18:55:34.112Z,21.10
2023-04-23T18:58:01.602Z,21.10
2023-04-23T19:00:29.433Z,21.05
2023-04-23T19:02:56.557Z,21.03
2023-04-23T19:05:23.713Z,21.04
2023-04-23T19:07:50.948Z,21.17
2023-04-23T19:10:18.171Z,21.13
2023-04-23T19:12:45.335Z,21.05
2023-04-23T19:15:14.608Z,20.98
2023-04-23T19:17:42.308Z,20.97
2023-04-23T19:20:11.967Z,21.08
2023-04-23T19:22:41.833Z,20.91
2023-04-23T19:25:10.058Z,21.07
2023-04-23T19:27:39.715Z,21.02
2023-04-23T19:30:10.370Z,20.96
2023-04-23T19:32:37.577Z,20.91
2023-04-23T19:35:06.257Z,20.99
2023-04-23T19:37:33.371Z,20.82
2023-04-23T19:40:01.193Z,20.73
2023-04-23T19:42:30.830Z,20.64
2023-04-23T19:44:58.249Z,20.72
2023-04-23T19:47:25.446Z,20.81
2023-04-23T19:49:53.339Z,20.77
2023-04-23T19:52:23.190Z,20.70
2023-04-23T19:54:50.914Z,20.67
2023-04-23T19:57:19.850Z,20.58
2023-04-23T19:59:47.211Z,20.61
2023-04-23T20:02:15.634Z,20.67
2023-04-23T20:04:43.847Z,20.63
2023-04-23T20:07:10.998Z,20.44
2023-04-23T20:09:38.671Z,20.53
2023-04-23T20:12:06.347Z,20.49
2023-04-23T20:14:34.041Z,20.24
2023-04-23T20:17:01.333Z,20.04
2023-04-23T20:19:31.786Z,19.81
2023-04-23T20:21:58.874Z,20.01
2023-04-23T20:24:26.362Z,19.38
2023-04-23T20:26:53.797Z,19.12
2023-04-23T20:29:21.147Z,19.53
2023-04-23T20:31:49.748Z,19.63
2023-04-23T20:34:17.946Z,19.48
2023-04-23T20:36:49.253Z,19.21
2023-04-23T20:39:21.545Z,18.96
2023-04-23T20:41:50.850Z,19.11
2023-04-23T20:44:18.546Z,19.31
2023-04-23T20:46:46.894Z,19.43
2023-04-23T20:49:14.044Z,19.44
2023-04-23T20:51:41.540Z,19.50
2023-04-23T20:54:08.755Z,19.56
2023-04-23T20:56:36.343Z,19.54
2023-04-23T20:59:04.047Z,19.40
2023-04-23T21:01:31.294Z,19.12
2023-04-23T21:04:01.318Z,18.97
2023-04-23T21:06:30.664Z,18.79
2023-04-23T21:08:58.108Z,18.79
2023-04-23T21:11:26.688Z,18.92
2023-04-23T21:13:54.100Z,18.96
2023-04-23T21:16:21.215Z,18.88
2023-04-23T21:18:49.125Z,19.07
2023-04-23T21:21:25.282Z,19.03
2023-04-23T21:23:52.671Z,19.06
2023-04-23T21:26:20.049Z,18.91
2023-04-23T21:28:47.658Z,18.94
2023-04-23T21:31:22.908Z,18.88
2023-04-23T21:33:50.098Z,18.75
2023-04-23T21:36:17.149Z,18.79
2023-04-23T21:38:44.345Z,18.66
2023-04-23T21:41:11.409Z,18.71
2023-04-23T21:43:38.731Z,18.54
2023-04-23T21:46:07.443Z,18.38
2023-04-23T21:48:35.747Z,18.45
2023-04-23T21:51:03.843Z,18.43
2023-04-23T21:53:31.163Z,18.44
2023-04-23T21:55:58.304Z,18.28
2023-04-23T21:58:25.741Z,18.46
2023-04-23T22:00:53.147Z,18.40
2023-04-23T22:03:28.794Z,18.29
2023-04-23T22:06:05.809Z,18.20
2023-04-23T22:08:33.939Z,18.38
2023-04-23T22:11:01.353Z,18.20
2023-04-23T22:13:28.419Z,18.24
2023-04-23T22:15:57.679Z,18.24
2023-04-23T22:18:25.262Z,18.07
2023-04-23T22:20:53.282Z,18.07
2023-04-23T22:23:20.776Z,17.97
2023-04-23T22:25:48.192Z,18.02
2023-04-23T22:28:15.313Z,17.98
2023-04-23T22:30:42.888Z,17.64
2023-04-23T22:33:10.103Z,17.63
2023-04-23T22:35:37.249Z,17.61
2023-04-23T22:38:04.428Z,17.74
2023-04-23T22:40:31.694Z,17.81
2023-04-23T22:42:58.800Z,17.77
2023-04-23T22:45:28.648Z,17.68
2023-04-23T22:47:55.931Z,17.58
2023-04-23T22:50:23.322Z,16.82
2023-04-23T22:52:50.666Z,16.67
2023-04-23T22:55:18.353Z,16.24
2023-04-23T22:57:46.364Z,16.30
2023-04-23T23:00:15.026Z,16.10
2023-04-23T23:02:42.195Z,16.03
2023-04-23T23:05:10.121Z,15.85
2023-04-23T23:07:37.270Z,15.63
2023-04-23T23:10:08.929Z,15.91
2023-04-23T23:12:37.758Z,16.17
2023-04-23T23:15:06.274Z,16.05
2023-04-23T23:17:33.795Z,16.30
2023-04-23T23:20:01.211Z,16.30
2023-04-23T23:22:28.636Z,16.29
2023-04-23T23:24:55.725Z,16.25
2023-04-23T23:27:23.760Z,16.33
2023-04-23T23:29:50.990Z,16.45
2023-04-23T23:32:18.687Z,16.30
2023-04-23T23:34:46.569Z,15.99
2023-04-23T23:37:13.990Z,16.08
2023-04-23T23:39:42.265Z,16.41
2023-04-23T23:42:09.965Z,16.42
2023-04-23T23:44:38.044Z,16.75
2023-04-23T23:47:05.725Z,16.86
2023-04-23T23:49:32.857Z,16.37
2023-04-23T23:52:01.097Z,16.25
2023-04-23T23:54:28.172Z,16.62
2023-04-23T23:56:57.474Z,16.73
2023-04-23T23:59:24.797Z,16.90
